Time;durP1;ratioP1;P1;durP2;ratioP2;P2;SDS_P1;SDS_P2;PMS_P1;PMS_P2;Temp;Humidity;BMP_temperature;BMP_pressure;BME280_temperature;BME280_humidity;BME280_pressure;Samples;Min_cycle;Max_cycle;Signal;HPM_P1;HPM_P2
2022/05/26 00:01:04;;;;;;;6.72;3.42;;;;;;;8.49;68.30;98579.97;5073205;28;20063;-63
2022/05/26 00:03:35;;;;;;;11.40;3.70;;;;;;;8.46;68.88;98581.25;5073731;28;20056;-64
2022/05/26 00:06:01;;;;;;;6.80;3.30;;;;;;;8.48;68.72;98584.47;5073575;28;20051;-63
2022/05/26 00:08:27;;;;;;;4.85;3.42;;;;;;;8.43;68.88;98583.59;5072951;28;20048;-65
2022/05/26 00:10:54;;;;;;;6.03;3.80;;;;;;;8.39;68.83;98578.00;5055572;28;20516;-64
2022/05/26 00:13:20;;;;;;;7.05;3.65;;;;;;;8.37;68.92;98583.47;5055416;28;20541;-65
2022/05/26 00:15:46;;;;;;;6.45;3.53;;;;;;;8.32;69.72;98578.13;5073413;28;20044;-64
2022/05/26 00:18:12;;;;;;;7.30;3.75;;;;;;;8.27;69.06;98574.63;5073874;28;20051;-64
2022/05/26 00:20:37;;;;;;;6.93;3.80;;;;;;;8.24;69.47;98575.13;5072645;28;20040;-63
2022/05/26 00:23:03;;;;;;;6.82;3.67;;;;;;;8.16;69.71;98569.19;5072983;28;20493;-62
2022/05/26 00:25:29;;;;;;;7.00;3.95;;;;;;;8.09;69.85;98567.72;5072772;28;20071;-63
2022/05/26 00:27:55;;;;;;;9.55;4.38;;;;;;;8.02;70.19;98560.00;5073045;28;20040;-64
2022/05/26 00:30:21;;;;;;;7.88;4.68;;;;;;;7.92;70.39;98558.00;5072946;28;20037;-64
2022/05/26 00:32:47;;;;;;;7.95;4.35;;;;;;;7.86;70.80;98561.59;5072892;28;20055;-64
2022/05/26 00:35:15;;;;;;;7.10;3.97;;;;;;;7.76;71.32;98555.34;5055192;28;20032;-64
2022/05/26 00:37:41;;;;;;;8.43;3.92;;;;;;;7.62;72.13;98541.69;5072805;28;20513;-64
2022/05/26 00:40:08;;;;;;;7.80;4.13;;;;;;;7.56;72.01;98545.25;5054729;28;20383;-63
2022/05/26 00:42:34;;;;;;;10.13;4.10;;;;;;;7.53;71.96;98556.28;5072901;28;20048;-63
2022/05/26 00:44:59;;;;;;;6.50;3.72;;;;;;;7.48;72.67;98543.81;5072304;28;20039;-65
2022/05/26 00:47:28;;;;;;;6.38;4.00;;;;;;;7.43;72.81;98543.72;5072893;28;20056;-63
2022/05/26 00:50:00;;;;;;;6.10;3.95;;;;;;;7.40;72.79;98538.94;5054652;28;20044;-63
2022/05/26 00:52:36;;;;;;;8.52;4.18;;;;;;;7.36;72.55;98541.25;5054503;28;20505;-63
2022/05/26 00:55:06;;;;;;;7.00;3.42;;;;;;;7.34;72.66;98538.03;5055100;28;20131;-64
2022/05/26 00:57:38;;;;;;;7.30;4.35;;;;;;;7.34;72.68;98535.41;5072141;28;20068;-63
2022/05/26 01:00:10;;;;;;;8.20;3.97;;;;;;;7.36;72.73;98532.53;5054243;28;20090;-65
2022/05/26 01:02:40;;;;;;;6.43;3.50;;;;;;;7.40;72.67;98528.38;5054825;28;20051;-65
2022/05/26 01:05:27;;;;;;;6.55;3.70;;;;;;;7.41;72.71;98525.53;5054403;28;20037;-64
2022/05/26 01:07:55;;;;;;;7.15;3.17;;;;;;;7.44;72.42;98516.31;5071988;28;20417;-64
2022/05/26 01:10:20;;;;;;;8.25;3.47;;;;;;;7.48;72.33;98518.25;5054231;28;20052;-64
2022/05/26 01:12:46;;;;;;;6.15;3.67;;;;;;;7.55;72.25;98518.09;5071723;28;20040;-64
2022/05/26 01:15:16;;;;;;;7.75;3.35;;;;;;;7.62;71.27;98515.31;5034126;28;20036;-64
2022/05/26 01:18:01;;;;;;;6.78;3.83;;;;;;;7.73;71.18;98515.25;5034536;28;20053;-63
2022/05/26 01:20:52;;;;;;;8.80;3.30;;;;;;;8.07;69.79;98509.94;5064718;28;20470;-64
2022/05/26 01:24:02;;;;;;;5.78;3.50;;;;;;;8.39;68.47;98504.06;5018198;28;20108;-64
2022/05/26 01:26:37;;;;;;;6.70;3.55;;;;;;;8.61;67.54;98504.84;4991867;28;20044;-63
2022/05/26 01:29:21;;;;;;;5.97;3.45;;;;;;;8.60;67.21;98508.53;5071852;28;20131;-63
2022/05/26 01:31:56;;;;;;;6.63;3.00;;;;;;;8.57;67.37;98495.81;5071096;28;20489;-64
2022/05/26 01:34:30;;;;;;;5.53;3.92;;;;;;;8.55;67.32;98489.19;5034257;28;20057;-64
2022/05/26 01:37:25;;;;;;;8.90;3.55;;;;;;;8.59;67.41;98500.88;5060611;28;20073;-63
2022/05/26 01:40:10;;;;;;;5.60;3.40;;;;;;;8.59;66.68;98485.81;5053801;28;20056;-63
2022/05/26 01:43:03;;;;;;;5.82;3.30;;;;;;;8.80;65.96;98486.06;5039810;28;20048;-64
2022/05/26 01:45:54;;;;;;;5.57;3.42;;;;;;;8.89;65.55;98489.84;5053287;28;20127;-63
2022/05/26 01:48:29;;;;;;;6.05;3.78;;;;;;;8.91;65.30;98497.53;5053380;28;20071;-64
2022/05/26 01:51:07;;;;;;;8.75;3.95;;;;;;;8.92;65.75;98502.56;5070999;28;20580;-64
2022/05/26 01:53:43;;;;;;;6.72;3.83;;;;;;;8.99;65.55;98499.72;5053587;28;20547;-64
2022/05/26 01:56:15;;;;;;;5.88;3.90;;;;;;;8.98;65.43;98492.84;5053500;28;20044;-64
2022/05/26 01:58:52;;;;;;;8.25;3.97;;;;;;;8.95;65.16;98496.78;5053048;28;20051;-64
2022/05/26 02:01:26;;;;;;;6.13;3.65;;;;;;;8.90;65.27;98506.50;5053538;28;20036;-64
2022/05/26 02:03:52;;;;;;;10.02;4.32;;;;;;;8.84;65.52;98509.09;5070951;28;20048;-64
2022/05/26 02:06:26;;;;;;;6.18;3.75;;;;;;;8.80;66.32;98508.00;5071413;28;20441;-65
2022/05/26 02:09:10;;;;;;;8.43;4.25;;;;;;;8.77;66.22;98507.69;5053057;28;20563;-64
2022/05/26 02:11:48;;;;;;;5.68;3.60;;;;;;;8.71;66.37;98509.47;5053237;28;20075;-64
2022/05/26 02:14:21;;;;;;;5.03;3.45;;;;;;;8.72;66.10;98503.13;5052769;28;20490;-64
2022/05/26 02:17:05;;;;;;;10.23;3.95;;;;;;;8.73;66.28;98498.63;5053409;28;20441;-63
2022/05/26 02:19:37;;;;;;;6.00;3.65;;;;;;;8.66;66.05;98501.47;5070858;28;20067;-63
2022/05/26 02:22:11;;;;;;;7.18;3.65;;;;;;;8.58;65.97;98494.78;5071403;28;20056;-62
2022/05/26 02:24:41;;;;;;;5.22;3.80;;;;;;;8.61;66.39;98493.47;5033254;28;20041;-63
2022/05/26 02:27:07;;;;;;;7.22;3.85;;;;;;;8.63;66.72;98494.84;5017221;28;20037;-64
2022/05/26 02:29:51;;;;;;;7.00;3.88;;;;;;;8.72;66.17;98491.78;5055833;28;20055;-65
2022/05/26 02:32:21;;;;;;;6.70;3.58;;;;;;;8.85;64.95;98494.84;5055907;28;20037;-63
2022/05/26 02:34:48;;;;;;;7.50;4.80;;;;;;;9.01;64.77;98487.06;5053001;28;20036;-62
2022/05/26 02:37:16;;;;;;;11.45;4.80;;;;;;;9.20;63.84;98487.50;5052661;28;20122;-63
2022/05/26 02:39:42;;;;;;;7.50;4.65;;;;;;;9.40;63.40;98489.53;5070834;28;20082;-63
2022/05/26 02:42:08;;;;;;;5.68;3.42;;;;;;;9.58;63.20;98488.38;5071305;28;20040;-63
2022/05/26 02:44:34;;;;;;;8.40;4.00;;;;;;;9.80;62.89;98475.06;5040365;28;20127;-64
2022/05/26 02:47:18;;;;;;;6.82;3.60;;;;;;;9.96;62.07;98482.03;5056753;28;20174;-63
2022/05/26 02:49:50;;;;;;;10.98;3.65;;;;;;;10.19;60.39;98486.13;5065188;28;20052;-63
2022/05/26 02:52:18;;;;;;;11.10;4.25;;;;;;;10.28;60.44;98475.88;5074822;28;20154;-63
2022/05/26 02:55:07;;;;;;;8.18;3.75;;;;;;;10.32;60.08;98483.03;5074860;28;20046;-63
2022/05/26 02:57:33;;;;;;;8.25;3.95;;;;;;;10.30;60.89;98476.44;5057317;28;20195;-63
2022/05/26 03:00:12;;;;;;;12.13;4.68;;;;;;;10.29;61.53;98477.47;5056739;28;20048;-64
2022/05/26 03:02:57;;;;;;;8.70;4.80;;;;;;;10.40;61.57;98479.13;5056657;28;20048;-63
2022/05/26 03:05:28;;;;;;;10.90;5.63;;;;;;;10.51;59.96;98467.50;5074698;28;20047;-64
2022/05/26 03:07:54;;;;;;;;;;;;;;;10.58;60.17;98472.56;5075212;28;20040;-63
2022/05/26 03:10:26;;;;;;;7.88;4.70;;;;;;;10.54;59.21;98469.66;5056308;28;19921;-63
2022/05/26 03:12:54;;;;;;;11.65;4.68;;;;;;;10.60;59.70;98465.16;5056443;28;20480;-64
2022/05/26 03:15:20;;;;;;;6.28;5.00;;;;;;;10.64;59.79;98463.56;5074360;28;20048;-63
2022/05/26 03:17:46;;;;;;;7.88;5.07;;;;;;;10.64;59.51;98453.78;5073868;28;20089;-63
2022/05/26 03:20:12;;;;;;;7.50;4.55;;;;;;;10.65;59.41;98454.59;5055859;28;20432;-64
2022/05/26 03:22:38;;;;;;;6.82;4.43;;;;;;;10.71;58.47;98453.53;5039825;28;20052;-64
2022/05/26 03:25:04;;;;;;;9.40;4.35;;;;;;;10.67;58.07;98452.44;5056711;28;20071;-64
2022/05/26 03:27:31;;;;;;;12.88;4.40;;;;;;;10.63;58.91;98435.50;5056318;28;20124;-63
2022/05/26 03:29:57;;;;;;;10.60;4.13;;;;;;;10.65;58.78;98444.78;5074347;28;20413;-64
2022/05/26 03:32:23;;;;;;;12.77;5.35;;;;;;;10.67;58.26;98437.34;5074381;28;20040;-63
2022/05/26 03:43:04;;;;;;;9.07;4.50;;;;;;;11.58;55.95;98427.09;5073200;28;20040;-63
2022/05/26 03:45:33;;;;;;;13.93;4.55;;;;;;;11.73;54.69;98426.28;5056066;28;20127;-64
2022/05/26 03:47:59;;;;;;;9.15;4.60;;;;;;;11.63;55.48;98419.13;5073806;28;20087;-63
2022/05/26 03:50:25;;;;;;;9.35;4.18;;;;;;;11.53;55.28;98419.13;5073274;28;20465;-64
2022/05/26 03:52:51;;;;;;;5.65;3.17;;;;;;;11.52;54.67;98409.59;5073746;28;20056;-63
2022/05/26 03:55:18;;;;;;;11.88;4.32;;;;;;;11.61;55.73;98415.94;5072614;28;20041;-63
2022/05/26 03:57:44;;;;;;;10.07;4.18;;;;;;;11.63;55.02;98408.50;5073660;28;20094;-63
2022/05/26 04:00:10;;;;;;;8.57;3.88;;;;;;;11.83;54.79;98413.00;5073185;28;20040;-63
2022/05/26 04:02:39;;;;;;;8.18;5.95;;;;;;;12.11;53.72;98419.56;5073395;28;20498;-64
2022/05/26 04:05:06;;;;;;;10.57;4.38;;;;;;;12.19;53.01;98418.22;5073523;28;20083;-64
2022/05/26 04:07:32;;;;;;;9.13;4.40;;;;;;;12.17;54.13;98413.19;5073486;28;20072;-64
2022/05/26 04:09:57;;;;;;;8.50;4.25;;;;;;;12.32;53.54;98400.91;5073329;28;20091;-64
2022/05/26 04:12:24;;;;;;;8.00;3.97;;;;;;;12.52;53.12;98394.69;5073054;28;20048;-64
2022/05/26 04:14:50;;;;;;;8.98;3.70;;;;;;;12.65;53.08;98397.56;5073350;28;20048;-64
2022/05/26 04:17:15;;;;;;;7.05;4.38;;;;;;;12.65;52.65;98391.44;5073109;28;20036;-65
2022/05/26 04:19:41;;;;;;;8.55;4.20;;;;;;;12.59;52.20;98388.03;5073551;28;20041;-65
2022/05/26 04:22:23;;;;;;;10.82;4.03;;;;;;;12.67;52.23;98387.41;5073295;28;20045;-64
2022/05/26 04:24:55;;;;;;;4.82;3.65;;;;;;;12.65;51.53;98383.47;5073253;28;20132;-64
2022/05/26 04:27:23;;;;;;;7.95;3.50;;;;;;;12.51;52.00;98375.31;5073323;28;20040;-64
2022/05/26 04:29:49;;;;;;;8.15;4.15;;;;;;;12.41;52.88;98376.16;5073254;28;20513;-63
2022/05/26 04:32:15;;;;;;;7.65;3.75;;;;;;;12.60;51.69;98373.66;5072680;28;20064;-64
2022/05/26 04:34:42;;;;;;;5.82;3.60;;;;;;;12.81;51.28;98374.31;5055323;28;20042;-63
2022/05/26 04:37:08;;;;;;;7.30;3.95;;;;;;;13.31;50.39;98379.56;5055197;28;20502;-65
2022/05/26 04:39:34;;;;;;;8.93;3.38;;;;;;;13.83;49.51;98378.78;5072758;28;20131;-63
2022/05/26 04:42:01;;;;;;;6.35;3.67;;;;;;;14.14;48.02;98369.63;5073191;28;20037;-64
2022/05/26 04:44:33;;;;;;;9.63;6.03;;;;;;;14.17;46.47;98379.72;5038109;28;20044;-64
2022/05/26 04:47:00;;;;;;;9.82;5.90;;;;;;;14.14;47.09;98369.63;5055026;28;20079;-63
2022/05/26 04:49:26;;;;;;;10.77;6.30;;;;;;;14.32;45.85;98366.19;5072833;28;20491;-67
2022/05/26 04:51:52;;;;;;;10.55;6.55;;;;;;;14.74;45.46;98364.63;5038258;28;20036;-63
2022/05/26 04:54:18;;;;;;;12.93;6.18;;;;;;;15.26;44.11;98376.06;5072505;28;20047;-64
2022/05/26 04:56:44;;;;;;;10.23;5.40;;;;;;;15.66;43.20;98373.78;5072396;28;20040;-64
2022/05/26 04:59:12;;;;;;;8.48;4.88;;;;;;;15.92;42.43;98376.78;5072084;28;20139;-65
2022/05/26 05:01:37;;;;;;;8.00;5.07;;;;;;;15.95;42.56;98372.75;5072660;28;20127;-64
2022/05/26 05:04:04;;;;;;;8.80;4.10;;;;;;;15.86;42.33;98365.41;5054379;28;20271;-66
2022/05/26 05:06:29;;;;;;;8.90;4.53;;;;;;;15.60;42.41;98369.63;5072332;28;20079;-64
2022/05/26 05:08:55;;;;;;;10.60;4.63;;;;;;;15.42;43.55;98368.59;5071762;28;20576;-63
2022/05/26 05:11:21;;;;;;;14.60;4.60;;;;;;;15.38;43.54;98371.06;5065554;28;20032;-62
2022/05/26 05:13:47;;;;;;;8.00;4.30;;;;;;;15.44;43.94;98363.72;5051732;28;20045;-63
2022/05/26 05:16:21;;;;;;;8.98;5.10;;;;;;;15.49;43.40;98365.53;5034128;28;20049;-62
2022/05/26 05:18:47;;;;;;;8.75;4.80;;;;;;;15.56;43.88;98368.59;5049141;28;20457;-61
2022/05/26 05:21:15;;;;;;;11.25;5.32;;;;;;;15.51;43.63;98363.38;5053704;28;20040;-63
2022/05/26 05:23:45;;;;;;;14.20;5.20;;;;;;;15.38;43.68;98362.25;5053989;28;20044;-63
2022/05/26 05:26:14;;;;;;;9.10;5.40;;;;;;;15.28;44.08;98357.09;5070791;28;20086;-64
2022/05/26 05:28:43;;;;;;;9.73;4.72;;;;;;;15.20;44.41;98362.00;5053466;28;20056;-67
2022/05/26 05:31:15;;;;;;;10.32;4.85;;;;;;;15.14;44.41;98365.84;5071838;28;20422;-62
2022/05/26 05:33:48;;;;;;;16.95;5.55;;;;;;;15.09;44.80;98363.28;5071859;28;20123;-65
2022/05/26 05:36:17;;;;;;;9.82;5.20;;;;;;;15.08;44.12;98360.88;5071597;28;20118;-64
2022/05/26 05:38:43;;;;;;;11.32;5.50;;;;;;;15.04;44.83;98354.56;5071608;28;20076;-64
2022/05/26 05:41:10;;;;;;;8.10;4.95;;;;;;;15.02;44.79;98365.50;5054083;28;20071;-65
2022/05/26 05:43:36;;;;;;;9.43;4.72;;;;;;;15.02;45.07;98360.16;5071513;28;20092;-63
2022/05/26 05:46:03;;;;;;;13.18;4.70;;;;;;;14.99;44.57;98355.41;5053896;28;20090;-63
2022/05/26 05:48:28;;;;;;;9.32;4.35;;;;;;;15.00;44.74;98357.03;5071345;28;20131;-63
2022/05/26 05:50:54;;;;;;;6.72;4.38;;;;;;;14.90;46.02;98352.63;5071326;28;20131;-64
2022/05/26 05:53:20;;;;;;;5.75;3.45;;;;;;;14.92;44.85;98347.00;5071315;28;20048;-64
2022/05/26 05:55:46;;;;;;;5.03;3.30;;;;;;;14.92;44.68;98350.44;5053116;28;20489;-64
2022/05/26 05:58:12;;;;;;;6.72;3.40;;;;;;;14.93;44.85;98337.91;5069284;28;20045;-64
2022/05/26 06:00:39;;;;;;;11.18;3.33;;;;;;;14.82;45.16;98333.81;5068343;28;20052;-64
2022/05/26 06:03:05;;;;;;;5.72;3.38;;;;;;;14.71;45.20;98333.19;5050105;28;20040;-63
2022/05/26 06:05:32;;;;;;;4.45;3.33;;;;;;;14.70;45.30;98332.38;5068347;28;20067;-65
2022/05/26 06:07:58;;;;;;;8.63;3.20;;;;;;;14.77;44.72;98332.81;5068939;28;20036;-65
2022/05/26 06:10:24;;;;;;;8.15;3.70;;;;;;;14.70;45.02;98327.03;5049754;28;20060;-63
2022/05/26 06:12:50;;;;;;;7.05;3.40;;;;;;;14.74;44.93;98330.72;5067780;28;20127;-64
2022/05/26 06:15:16;;;;;;;6.22;3.70;;;;;;;14.74;45.14;98328.06;5069094;28;20131;-64
2022/05/26 06:17:42;;;;;;;8.20;3.72;;;;;;;14.74;45.14;98325.38;5050687;28;20048;-61
2022/05/26 06:20:10;;;;;;;7.47;3.63;;;;;;;14.84;45.57;98326.31;5051560;28;20044;-63
2022/05/26 06:22:37;;;;;;;8.73;3.40;;;;;;;14.86;44.95;98318.81;5068747;28;20110;-62
2022/05/26 06:25:03;;;;;;;3.92;3.17;;;;;;;14.83;44.58;98322.84;5034390;28;20044;-63
2022/05/26 06:30:16;;;;;;;7.03;3.70;;;;;;;14.81;45.04;98322.34;5070101;28;20075;-63
2022/05/26 06:38:17;;;;;;;8.40;4.25;;;;;;;14.99;44.85;98313.50;5069106;28;20064;-63
2022/05/26 06:40:44;;;;;;;8.18;4.20;;;;;;;15.01;44.90;98312.44;5069899;28;20047;-64
2022/05/26 06:43:09;;;;;;;8.82;3.90;;;;;;;14.97;44.69;98317.53;5051948;28;20044;-64
2022/05/26 06:45:38;;;;;;;9.23;4.22;;;;;;;14.91;45.34;98321.38;5063055;28;20090;-64
2022/05/26 06:48:04;;;;;;;10.63;4.57;;;;;;;14.90;44.99;98309.13;5088737;28;20036;-64
2022/05/26 06:50:29;;;;;;;7.75;4.50;;;;;;;15.05;45.45;98306.22;5070772;28;20404;-63
2022/05/26 06:52:55;;;;;;;12.52;4.63;;;;;;;15.10;45.01;98298.13;5071083;28;20044;-64
2022/05/26 06:55:21;;;;;;;11.85;4.63;;;;;;;15.24;45.40;98300.81;5088861;28;20040;-62
2022/05/26 06:57:47;;;;;;;11.98;5.50;;;;;;;15.39;44.74;98297.09;5072053;28;20074;-64
2022/05/26 07:00:15;;;;;;;10.63;4.53;;;;;;;15.43;43.87;98298.06;5090141;28;20042;-63
2022/05/26 07:02:41;;;;;;;12.23;5.07;;;;;;;15.53;43.15;98289.06;5089225;28;20412;-64
2022/05/26 07:05:08;;;;;;;12.30;4.68;;;;;;;15.43;43.13;98284.72;5069821;28;20540;-63
2022/05/26 07:07:35;;;;;;;9.02;4.80;;;;;;;15.40;43.18;98286.09;5051738;28;20036;-62
2022/05/26 07:10:01;;;;;;;8.85;5.55;;;;;;;15.38;42.90;98282.13;5069870;28;20055;-63
2022/05/26 07:12:28;;;;;;;14.45;5.20;;;;;;;15.50;42.98;98282.47;5051162;28;20044;-63
2022/05/26 07:14:54;;;;;;;14.00;5.30;;;;;;;15.69;42.65;98274.38;5070646;28;20078;-63
2022/05/26 07:17:20;;;;;;;8.73;5.00;;;;;;;15.80;43.08;98264.28;5069763;28;20080;-64
2022/05/26 07:19:47;;;;;;;16.23;5.10;;;;;;;15.76;42.35;98266.72;5031574;28;20576;-64
2022/05/26 07:22:13;;;;;;;9.18;4.80;;;;;;;15.74;41.78;98260.13;5032124;28;20047;-64
2022/05/26 07:24:41;;;;;;;6.60;3.97;;;;;;;15.70;41.85;98264.47;5066900;28;20056;-64
2022/05/26 07:27:06;;;;;;;5.60;4.10;;;;;;;15.66;41.40;98259.69;5034437;28;20036;-64
2022/05/26 07:29:32;;;;;;;12.77;4.72;;;;;;;15.74;41.40;98247.56;5070204;28;20519;-65
2022/05/26 07:31:59;;;;;;;9.48;4.38;;;;;;;15.83;41.32;98255.66;5072453;28;20508;-65
2022/05/26 07:34:25;;;;;;;7.20;4.07;;;;;;;15.99;40.96;98258.78;5072713;28;20033;-63
2022/05/26 07:42:22;;;;;;;8.00;3.72;;;;;;;16.26;38.39;98247.22;5070533;28;20044;-66
2022/05/26 07:44:49;;;;;;;6.00;2.97;;;;;;;16.26;38.32;98233.84;5071677;28;20051;-65
2022/05/26 07:47:15;;;;;;;4.22;3.22;;;;;;;16.38;37.77;98227.97;5071799;28;20047;-64
2022/05/26 07:49:47;;;;;;;7.32;3.30;;;;;;;16.41;37.90;98232.72;5036161;28;20413;-67
2022/05/26 07:52:16;;;;;;;8.50;3.15;;;;;;;16.58;38.66;98238.19;5054579;28;20549;-65
2022/05/26 07:54:44;;;;;;;6.05;3.33;;;;;;;16.73;38.46;98240.47;5004987;28;20074;-63
2022/05/26 07:57:25;;;;;;;5.65;3.20;;;;;;;16.79;38.66;98231.28;5037869;28;20674;-63
2022/05/26 07:59:52;;;;;;;5.50;3.30;;;;;;;16.76;38.13;98231.09;5036811;28;20505;-64
2022/05/26 08:02:18;;;;;;;4.78;3.20;;;;;;;16.77;37.62;98227.34;5054316;28;20032;-64
2022/05/26 08:04:44;;;;;;;6.00;3.25;;;;;;;16.77;37.17;98217.41;5038096;28;20048;-64
2022/05/26 08:07:11;;;;;;;14.40;3.38;;;;;;;16.82;37.78;98221.06;5072788;28;20043;-64
2022/05/26 08:09:40;;;;;;;8.77;3.85;;;;;;;16.84;37.97;98219.66;5072088;28;20071;-64
2022/05/26 08:12:11;;;;;;;8.07;3.47;;;;;;;17.00;37.93;98218.16;5053291;28;20517;-64
2022/05/26 08:14:38;;;;;;;9.77;3.67;;;;;;;17.08;37.81;98208.59;5053521;28;20127;-64
2022/05/26 08:17:04;;;;;;;10.85;4.13;;;;;;;17.36;37.36;98213.75;5037516;28;20044;-62
2022/05/26 08:19:30;;;;;;;8.50;3.63;;;;;;;17.44;37.89;98207.59;5071667;28;20095;-64
2022/05/26 08:21:56;;;;;;;8.93;4.28;;;;;;;17.52;36.73;98209.53;5052908;28;20048;-64
2022/05/26 08:24:24;;;;;;;9.27;3.72;;;;;;;17.75;36.24;98207.53;5072186;28;20127;-65
2022/05/26 08:26:50;;;;;;;7.25;3.95;;;;;;;18.00;35.85;98195.28;5021605;28;20502;-64
2022/05/26 08:29:16;;;;;;;5.72;3.45;;;;;;;18.23;35.14;98197.81;5054723;28;20044;-64
2022/05/26 08:31:42;;;;;;;8.77;3.70;;;;;;;18.49;35.26;98203.94;5054115;28;20070;-65
2022/05/26 08:34:08;;;;;;;5.65;3.55;;;;;;;18.65;35.19;98195.38;5072048;28;20391;-64
2022/05/26 08:36:35;;;;;;;6.93;3.15;;;;;;;18.86;34.71;98192.84;5053524;28;20459;-65
2022/05/26 08:39:02;;;;;;;7.93;3.30;;;;;;;18.88;34.41;98195.97;5037097;28;20048;-64
2022/05/26 08:41:36;;;;;;;8.00;3.40;;;;;;;18.77;34.25;98190.97;5072117;28;20478;-64
2022/05/26 08:44:09;;;;;;;7.57;3.20;;;;;;;18.78;34.26;98194.44;5051841;28;20075;-63
2022/05/26 08:46:47;;;;;;;4.95;3.13;;;;;;;18.76;33.07;98191.28;5071769;28;20419;-64
2022/05/26 08:49:25;;;;;;;5.25;3.30;;;;;;;18.77;32.88;98187.50;5053449;28;20048;-64
2022/05/26 08:51:54;;;;;;;8.80;3.60;;;;;;;18.64;33.04;98181.16;5036621;28;20528;-63
2022/05/26 08:54:31;;;;;;;6.63;3.80;;;;;;;18.67;32.53;98188.56;5071776;28;20068;-63
2022/05/26 08:56:59;;;;;;;5.68;3.47;;;;;;;18.60;32.64;98181.03;5036187;28;20121;-63
2022/05/26 08:59:35;;;;;;;7.35;3.13;;;;;;;18.45;31.92;98176.16;5035698;28;20047;-66
2022/05/26 09:02:03;;;;;;;5.95;2.83;;;;;;;18.44;32.61;98173.78;5035877;28;20032;-65
2022/05/26 09:04:29;;;;;;;8.25;3.42;;;;;;;18.59;31.54;98176.00;5018373;28;20052;-64
2022/05/26 09:15:15;;;;;;;7.75;2.83;;;;;;;19.08;30.48;98156.88;5069470;28;20056;-64
2022/05/26 09:17:40;;;;;;;5.07;2.90;;;;;;;19.22;30.66;98154.78;5069772;28;20410;-64
2022/05/26 09:20:38;;;;;;;5.93;3.13;;;;;;;19.37;30.45;98156.09;5051161;28;20037;-64
2022/05/26 09:23:12;;;;;;;5.72;2.88;;;;;;;19.40;30.78;98145.50;5069410;28;20036;-65
2022/05/26 09:25:45;;;;;;;4.18;3.35;;;;;;;19.57;30.79;98146.50;5068182;28;20048;-63
2022/05/26 09:28:12;;;;;;;5.22;3.03;;;;;;;19.71;30.36;98137.09;5069734;28;20051;-64
2022/05/26 09:31:00;;;;;;;7.75;3.20;;;;;;;19.73;30.30;98134.84;5068593;28;20044;-64
2022/05/26 09:33:31;;;;;;;4.57;2.90;;;;;;;19.58;30.84;98123.88;5014037;28;20553;-64
2022/05/26 09:36:21;;;;;;;5.68;3.30;;;;;;;19.76;30.54;98124.56;5051328;28;20120;-64
2022/05/26 09:38:47;;;;;;;;;;;;;;;19.92;30.13;98106.72;5050502;28;20048;-62
2022/05/26 09:41:15;;;;;;;8.20;3.53;;;;;;;19.92;30.42;98123.66;5049229;28;19921;-64
2022/05/26 09:43:50;;;;;;;3.90;3.13;;;;;;;20.08;30.92;98113.06;5041062;28;20513;-62
2022/05/26 09:46:17;;;;;;;7.90;3.75;;;;;;;20.15;29.50;98109.84;5031105;28;20033;-63
2022/05/26 09:48:45;;;;;;;8.35;3.85;;;;;;;20.15;29.77;98118.69;5031830;28;20098;-61
2022/05/26 09:51:27;;;;;;;6.15;3.45;;;;;;;20.28;29.21;98108.75;5050454;28;20048;-62
2022/05/26 09:53:55;;;;;;;3.85;2.85;;;;;;;20.31;28.98;98110.00;5067500;28;20040;-63
2022/05/26 09:56:29;;;;;;;5.22;2.90;;;;;;;20.35;28.98;98100.94;5050641;28;20040;-63
2022/05/26 09:58:55;;;;;;;4.53;3.60;;;;;;;20.30;29.56;98098.44;5052237;28;20090;-62
2022/05/26 10:02:14;;;;;;;6.90;3.22;;;;;;;20.39;29.76;98090.28;5070760;28;20044;-62
2022/05/26 10:04:52;;;;;;;7.28;3.50;;;;;;;20.37;29.07;98084.44;4973878;28;20088;-62
2022/05/26 10:07:39;;;;;;;4.28;3.05;;;;;;;20.35;28.93;98086.69;5009513;28;20136;-62
2022/05/26 10:10:12;;;;;;;5.00;3.15;;;;;;;20.24;28.53;98078.25;4992000;28;20064;-63
2022/05/26 10:12:52;;;;;;;6.38;3.10;;;;;;;20.15;29.57;98078.34;5009533;28;20053;-63
2022/05/26 10:15:31;;;;;;;9.77;3.03;;;;;;;20.15;28.74;98070.28;4992490;28;20054;-63
2022/05/26 10:18:15;;;;;;;6.35;3.03;;;;;;;20.23;28.81;98078.56;4993455;28;20064;-63
2022/05/26 10:20:50;;;;;;;4.35;3.05;;;;;;;20.29;28.54;98071.88;5011381;28;20041;-63
2022/05/26 10:24:04;;;;;;;9.23;3.60;;;;;;;20.42;28.13;98068.09;5010489;28;20062;-63
2022/05/26 10:26:47;;;;;;;6.68;3.22;;;;;;;20.59;28.41;98064.44;5010136;28;20057;-62
2022/05/26 10:29:34;;;;;;;5.97;3.20;;;;;;;20.72;28.42;98052.53;4991667;28;20048;-63
2022/05/26 10:32:06;;;;;;;7.63;3.30;;;;;;;20.91;27.85;98062.75;5010140;28;20045;-63
2022/05/26 10:34:50;;;;;;;8.70;3.72;;;;;;;21.06;28.12;98055.88;5010061;28;20042;-64
2022/05/26 10:37:53;;;;;;;5.05;3.65;;;;;;;21.22;27.35;98047.91;5011603;28;20056;-64
2022/05/26 10:40:31;;;;;;;4.15;3.05;;;;;;;21.27;27.25;98039.59;4993130;28;20176;-63
2022/05/26 10:43:03;;;;;;;4.07;2.92;;;;;;;21.21;27.80;98039.03;4993687;28;20073;-65
2022/05/26 10:45:42;;;;;;;8.45;3.03;;;;;;;21.06;27.98;98032.44;5007096;28;20046;-63
2022/05/26 10:48:14;;;;;;;7.95;3.50;;;;;;;20.84;28.25;98033.69;4991863;28;20563;-64
2022/05/26 10:50:53;;;;;;;4.93;3.13;;;;;;;20.87;27.84;98033.00;4984469;28;20085;-64
2022/05/26 10:53:23;;;;;;;7.80;3.75;;;;;;;20.95;28.71;98025.16;4993014;28;20482;-62
2022/05/26 10:56:36;;;;;;;7.00;3.17;;;;;;;21.14;27.80;98024.56;4993172;28;20042;-62
2022/05/26 10:59:19;;;;;;;9.05;3.55;;;;;;;21.14;27.54;98019.16;4993614;28;20082;-63
2022/05/26 11:01:51;;;;;;;6.50;3.17;;;;;;;21.14;27.68;98017.25;4989580;28;20054;-64
2022/05/26 11:04:27;;;;;;;5.50;3.75;;;;;;;21.15;28.49;98021.53;5006244;28;20401;-63
2022/05/26 11:06:57;;;;;;;6.72;3.88;;;;;;;21.24;28.70;98011.41;5018218;28;20150;-64
2022/05/26 11:09:46;;;;;;;13.95;4.40;;;;;;;21.45;27.59;98013.94;4997488;28;20092;-63
2022/05/26 11:12:19;;;;;;;8.35;3.08;;;;;;;21.60;27.34;98006.25;4995791;28;20085;-63
2022/05/26 11:17:45;;;;;;;6.68;3.22;;;;;;;21.58;27.47;97993.13;4998022;28;20065;-61
2022/05/26 11:20:17;;;;;;;5.95;3.53;;;;;;;21.77;27.16;97997.88;4992824;28;20100;-63
2022/05/26 11:22:45;;;;;;;7.30;3.00;;;;;;;21.84;26.28;97989.19;4994249;28;20043;-63
2022/05/26 11:25:16;;;;;;;11.77;3.38;;;;;;;21.65;26.18;97981.72;4993394;28;20052;-65
2022/05/26 11:27:49;;;;;;;4.82;2.67;;;;;;;21.49;26.14;97979.78;4960187;28;20039;-64
2022/05/26 11:36:15;;;;;;;4.88;3.28;;;;;;;21.53;26.49;97972.59;4993545;28;20507;-62
2022/05/26 11:38:47;;;;;;;12.10;3.63;;;;;;;21.38;26.49;97969.84;4981486;28;20061;-61
2022/05/26 11:41:24;;;;;;;6.80;3.47;;;;;;;21.35;26.75;97963.19;5013583;28;20065;-61
2022/05/26 11:44:10;;;;;;;5.65;3.35;;;;;;;21.42;27.62;97962.63;5013388;28;20041;-62
2022/05/26 11:46:44;;;;;;;5.82;3.08;;;;;;;21.48;27.51;97961.25;5012278;28;20128;-63
2022/05/26 11:49:11;;;;;;;6.20;3.15;;;;;;;21.68;27.34;97964.88;5012536;28;20048;-63
2022/05/26 11:51:39;;;;;;;4.90;3.17;;;;;;;21.77;27.09;97968.97;5013160;28;20517;-62
2022/05/26 11:54:10;;;;;;;4.95;3.00;;;;;;;21.76;27.23;97953.91;5010747;28;20487;-63
2022/05/26 11:56:42;;;;;;;6.18;3.20;;;;;;;21.71;27.22;97956.88;5010955;28;20052;-63
2022/05/26 11:59:34;;;;;;;5.78;3.15;;;;;;;21.80;27.33;97940.53;5012604;28;20157;-63
2022/05/26 12:01:59;;;;;;;7.97;3.28;;;;;;;21.86;26.71;97944.53;5010998;28;20037;-63
2022/05/26 12:04:51;;;;;;;5.70;3.33;;;;;;;21.87;26.99;97937.22;5012073;28;20092;-64
2022/05/26 12:07:18;;;;;;;4.43;3.38;;;;;;;21.80;27.25;97942.47;4989869;28;20046;-64
2022/05/26 12:09:50;;;;;;;6.82;3.30;;;;;;;21.72;28.01;97938.78;5005177;28;20053;-64
2022/05/26 12:12:21;;;;;;;5.65;3.50;;;;;;;21.71;27.92;97938.00;4992544;28;20062;-62
2022/05/26 12:14:47;;;;;;;7.30;3.90;;;;;;;21.84;27.90;97930.63;5005995;28;20415;-62
2022/05/26 12:17:34;;;;;;;5.72;4.05;;;;;;;22.08;27.61;97923.47;5011184;28;20141;-62
2022/05/26 12:20:03;;;;;;;6.20;3.30;;;;;;;22.36;26.86;97920.72;4997507;28;20045;-62
2022/05/26 12:22:31;;;;;;;6.50;3.88;;;;;;;22.44;26.25;97908.91;4975029;28;20546;-62
2022/05/26 12:25:15;;;;;;;11.63;3.63;;;;;;;22.35;26.22;97903.72;4994450;28;20499;-62
2022/05/26 12:28:06;;;;;;;9.70;3.72;;;;;;;22.28;26.09;97887.38;4992219;28;20054;-62
2022/05/26 12:30:33;;;;;;;9.73;3.80;;;;;;;22.11;26.62;97901.97;4975424;28;20045;-60
2022/05/26 12:33:01;;;;;;;8.70;3.42;;;;;;;22.05;26.34;97891.81;4993756;28;20085;-61